Main page
METAR-TAF:

METAR-TAF

Airports :

Pointe Noire Airport

Pointe-Noire, Congo

latitude: 04-49S, longitude: 011-54E, elevation: 17 m

Current weather observation

The report was made 1 hour and 4 minutes ago, at 08:00 UTC
Wind 4 kt from the East/Southeast, varying between East/Northeast and South
Temperature 24°C
Humidity 89%
Pressure 1017 hPa
Visibility: 8000 m
Few clouds at a height of 1100 ft
Broken clouds at a height of 2600 ft

METAR: FCPP 210800Z 11004KT 060V170 8000 FEW011 BKN026 24/22 Q1017 NOSIG

Time: 10:04 (09:04 UTC)

Forecast

The report was made 4 hours and 4 minutes ago, at 05:00 UTC
Forecast valid from 21 at 06 UTC to 22 at 06 UTC
Wind 4 kt from the South/Southwest
Visibility: 7000 m
Few clouds at a height of 1500 ft
Probability 30%
from 21 at 04 UTC to 22 at 08 UTC
Visibility: 3000 m
mist

TAF: FCPP 210500Z 2106/2206 20004KT 7000 FEW015 PROB30 2104/2208 3000 BR

Weather observations and forecasts of more than 4000 airports (METAR and TAF reports).

The available stations are represented by yellow and red dots on the map.

Hover mouse over dot to see the name of the station.

Then click to see weather observations and forecasts.

To change the map : click on the green buttons with a black cross to zoom in, on the green button with a dash to zoom out, or on the green arrows for adjacent maps.


METAR-TAF: